createdAt,value
2023-02-21T00:00:45.913Z,97.22
2023-02-21T00:01:45.768Z,97.22
2023-02-21T00:02:45.472Z,97.32
2023-02-21T00:03:45.727Z,97.32
2023-02-21T00:04:45.482Z,97.32
2023-02-21T00:06:07.254Z,97.42
2023-02-21T00:06:45.816Z,97.42
2023-02-21T00:07:45.649Z,97.42
2023-02-21T00:08:45.858Z,97.42
2023-02-21T00:09:45.660Z,97.53
2023-02-21T00:10:45.376Z,97.53
2023-02-21T00:11:45.655Z,97.53
2023-02-21T00:12:45.375Z,97.53
2023-02-21T00:13:45.663Z,97.63
2023-02-21T00:14:45.396Z,97.63
2023-02-21T00:16:06.365Z,97.63
2023-02-21T00:16:45.448Z,97.63
2023-02-21T00:17:45.688Z,97.63
2023-02-21T00:18:45.448Z,97.73
2023-02-21T00:19:45.706Z,97.73
2023-02-21T00:20:45.434Z,97.73
2023-02-21T00:21:45.705Z,97.73
2023-02-21T00:22:45.412Z,97.73
2023-02-21T00:23:45.698Z,97.73
2023-02-21T00:24:45.395Z,97.73
2023-02-21T00:26:07.123Z,97.73
2023-02-21T00:26:45.418Z,97.73
2023-02-21T00:27:45.167Z,97.73
2023-02-21T00:28:45.400Z,97.63
2023-02-21T00:29:45.160Z,97.63
2023-02-21T00:30:45.492Z,97.73
2023-02-21T00:31:45.164Z,97.73
2023-02-21T00:32:45.493Z,97.73
2023-02-21T00:33:45.174Z,97.73
2023-02-21T00:34:45.443Z,97.73
2023-02-21T00:36:06.654Z,97.73
2023-02-21T00:36:45.473Z,97.73
2023-02-21T00:37:45.213Z,97.73
2023-02-21T00:38:45.485Z,97.73
2023-02-21T00:39:45.225Z,97.73
2023-02-21T00:40:45.497Z,97.73
2023-02-21T00:41:45.203Z,97.73
2023-02-21T00:42:45.472Z,97.83
2023-02-21T00:43:45.221Z,97.83
2023-02-21T00:44:45.006Z,97.83
2023-02-21T00:46:06.806Z,97.83
2023-02-21T00:46:45.049Z,97.83
2023-02-21T00:47:45.293Z,97.83
2023-02-21T00:48:45.064Z,97.83
2023-02-21T00:49:45.299Z,97.94
2023-02-21T00:50:45.062Z,97.94
2023-02-21T00:51:45.302Z,97.94
2023-02-21T00:52:45.058Z,98.04
2023-02-21T00:53:45.308Z,98.04
2023-02-21T00:54:45.072Z,97.99
2023-02-21T00:56:07.294Z,98.08
2023-02-21T00:56:45.785Z,98.08
2023-02-21T00:57:45.809Z,98.08
2023-02-21T00:58:44.339Z,98.19
2023-02-21T00:59:45.733Z,98.19
2023-02-21T01:00:46.341Z,98.19
2023-02-21T01:01:46.684Z,98.29
2023-02-21T01:02:46.369Z,98.29
2023-02-21T01:03:46.615Z,98.29
2023-02-21T01:04:46.387Z,98.29
2023-02-21T01:06:06.166Z,98.29
2023-02-21T01:06:46.415Z,98.29
2023-02-21T01:07:46.184Z,98.29
2023-02-21T01:08:46.464Z,98.39
2023-02-21T01:09:46.244Z,98.39
2023-02-21T01:10:46.492Z,98.39
2023-02-21T01:11:44.836Z,98.39
2023-02-21T01:12:46.554Z,98.50
2023-02-21T01:13:45.571Z,98.50
2023-02-21T01:14:46.582Z,98.50
2023-02-21T01:16:05.862Z,98.60
2023-02-21T01:16:46.090Z,98.50
2023-02-21T01:17:45.759Z,98.60
2023-02-21T01:18:44.695Z,98.60
2023-02-21T01:19:46.379Z,98.60
2023-02-21T01:20:44.752Z,98.70
2023-02-21T01:21:46.441Z,98.70
2023-02-21T01:22:46.214Z,98.70
2023-02-21T01:23:45.786Z,98.60
2023-02-21T01:24:46.259Z,98.60
2023-02-21T01:26:06.029Z,98.60
2023-02-21T01:26:46.294Z,98.60
2023-02-21T01:27:46.069Z,98.60
2023-02-21T01:28:45.568Z,98.60
2023-02-21T01:29:45.239Z,98.60
2023-02-21T01:30:46.441Z,98.60
2023-02-21T01:31:46.159Z,98.60
2023-02-21T01:32:45.953Z,98.60
2023-02-21T01:33:44.774Z,98.60
2023-02-21T01:34:45.979Z,98.60
2023-02-21T01:36:06.739Z,98.70
2023-02-21T01:36:44.859Z,98.70
2023-02-21T01:37:46.139Z,98.70
2023-02-21T01:38:45.916Z,98.70
2023-02-21T01:39:46.180Z,98.70
2023-02-21T01:40:45.961Z,98.70
2023-02-21T01:41:45.271Z,98.70
2023-02-21T01:42:47.562Z,98.80
2023-02-21T01:43:46.253Z,98.80
2023-02-21T01:44:46.027Z,98.80
2023-02-21T01:46:05.845Z,98.91
2023-02-21T01:46:46.080Z,98.80
2023-02-21T01:47:45.238Z,98.80
2023-02-21T01:48:46.107Z,98.80
2023-02-21T01:49:45.874Z,98.91
2023-02-21T01:50:46.129Z,98.91
2023-02-21T01:51:45.882Z,98.91
2023-02-21T01:52:44.721Z,98.91
2023-02-21T01:53:45.267Z,98.91
2023-02-21T01:54:45.423Z,98.91
2023-02-21T01:56:05.457Z,99.01
2023-02-21T01:56:45.669Z,99.01
2023-02-21T01:57:45.923Z,99.01
2023-02-21T01:58:45.710Z,99.01
2023-02-21T01:59:45.242Z,99.11
2023-02-21T02:00:45.757Z,99.01
2023-02-21T02:01:46.052Z,99.11
2023-02-21T02:02:45.836Z,99.01
2023-02-21T02:03:46.233Z,99.01
2023-02-21T02:04:45.287Z,99.01
2023-02-21T02:06:05.336Z,99.01
2023-02-21T02:06:45.568Z,99.11
2023-02-21T02:07:45.843Z,99.11
2023-02-21T02:08:44.852Z,99.11
2023-02-21T02:09:45.854Z,99.11
2023-02-21T02:10:45.637Z,99.11
2023-02-21T02:11:45.258Z,99.21
2023-02-21T02:12:45.677Z,99.21
2023-02-21T02:13:45.944Z,99.21
2023-02-21T02:14:45.695Z,99.32
2023-02-21T02:16:05.524Z,99.42
2023-02-21T02:16:44.757Z,99.42
2023-02-21T02:17:44.765Z,99.42
2023-02-21T02:18:45.035Z,99.42
2023-02-21T02:19:45.566Z,99.42
2023-02-21T02:20:45.809Z,99.42
2023-02-21T02:21:45.557Z,99.42
2023-02-21T02:22:45.828Z,99.42
2023-02-21T02:23:44.758Z,99.52
2023-02-21T02:24:45.856Z,99.52
2023-02-21T02:26:05.627Z,99.67
2023-02-21T02:26:45.897Z,99.63
2023-02-21T02:27:45.630Z,99.67
2023-02-21T02:28:45.396Z,99.67
2023-02-21T02:29:44.781Z,99.77
2023-02-21T02:30:45.448Z,99.77
2023-02-21T02:31:45.765Z,99.77
2023-02-21T02:32:44.736Z,99.88
2023-02-21T02:33:45.746Z,99.88
2023-02-21T02:34:45.530Z,99.98
2023-02-21T02:36:05.687Z,99.98
2023-02-21T02:36:44.284Z,99.98
2023-02-21T02:37:45.517Z,99.98
2023-02-21T02:38:45.284Z,99.99
2023-02-21T02:39:45.527Z,99.99
2023-02-21T02:40:45.287Z,99.99
2023-02-21T02:41:44.773Z,99.99
2023-02-21T02:42:44.576Z,99.99
2023-02-21T02:43:45.561Z,99.99
2023-02-21T02:44:45.303Z,99.99
2023-02-21T02:46:05.667Z,99.99
2023-02-21T02:46:45.362Z,99.99
2023-02-21T02:47:44.780Z,99.99
2023-02-21T02:48:45.354Z,99.99
2023-02-21T02:49:45.656Z,99.99
2023-02-21T02:50:45.396Z,99.99
2023-02-21T02:51:43.722Z,99.99
2023-02-21T02:52:44.773Z,99.99
2023-02-21T02:53:45.201Z,99.99
2023-02-21T02:54:45.445Z,99.99
2023-02-21T02:56:03.808Z,99.99
2023-02-21T02:56:44.974Z,99.99
2023-02-21T02:57:45.275Z,99.99
2023-02-21T02:58:44.777Z,99.99
2023-02-21T02:59:45.325Z,99.99
2023-02-21T03:00:44.303Z,99.99
2023-02-21T03:01:45.389Z,99.99
2023-02-21T03:02:43.674Z,99.99
2023-02-21T03:03:45.458Z,99.99
2023-02-21T03:04:43.715Z,99.99
2023-02-21T03:06:05.477Z,99.99
2023-02-21T03:06:43.761Z,99.99
2023-02-21T03:07:44.995Z,99.99
2023-02-21T03:08:45.226Z,99.99
2023-02-21T03:09:44.283Z,99.99
2023-02-21T03:10:45.257Z,99.99
2023-02-21T03:11:44.269Z,99.99
2023-02-21T03:12:45.294Z,99.99
2023-02-21T03:13:45.024Z,99.99
2023-02-21T03:14:45.265Z,99.99
2023-02-21T03:16:04.332Z,99.99
2023-02-21T03:16:45.315Z,99.99
2023-02-21T03:17:43.631Z,99.99
2023-02-21T03:18:43.909Z,99.99
2023-02-21T03:19:43.634Z,99.99
2023-02-21T03:20:43.414Z,99.99
2023-02-21T03:21:45.098Z,99.99
2023-02-21T03:22:44.121Z,99.99
2023-02-21T03:23:45.128Z,99.99
2023-02-21T03:24:43.502Z,99.99
2023-02-21T03:26:05.234Z,99.99
2023-02-21T03:26:44.298Z,99.99
2023-02-21T03:27:45.717Z,99.99
2023-02-21T03:28:43.671Z,99.99
2023-02-21T03:29:43.469Z,99.99
2023-02-21T03:30:43.790Z,99.99
2023-02-21T03:31:43.648Z,99.99
2023-02-21T03:32:44.382Z,99.99
2023-02-21T03:33:43.667Z,99.99
2023-02-21T03:34:43.446Z,99.99
2023-02-21T03:36:05.163Z,99.99
2023-02-21T03:36:44.953Z,99.99
2023-02-21T03:37:43.357Z,99.99
2023-02-21T03:38:44.275Z,99.99
2023-02-21T03:39:43.342Z,99.99
2023-02-21T03:40:43.673Z,99.99
2023-02-21T03:41:43.428Z,99.99
2023-02-21T03:42:43.293Z,99.99
2023-02-21T03:43:44.281Z,99.99
2023-02-21T03:44:43.349Z,99.99
2023-02-21T03:46:05.096Z,99.99
2023-02-21T03:46:43.578Z,99.99
2023-02-21T03:47:43.216Z,99.99
2023-02-21T03:48:43.534Z,99.99
2023-02-21T03:49:44.727Z,99.99
2023-02-21T03:50:43.637Z,99.99
2023-02-21T03:51:43.439Z,99.99
2023-02-21T03:52:43.220Z,99.99
2023-02-21T03:53:43.529Z,99.99
2023-02-21T03:54:43.328Z,99.99
2023-02-21T03:56:03.822Z,99.99
2023-02-21T03:56:43.468Z,99.99
2023-02-21T03:57:43.194Z,99.99
2023-02-21T03:58:43.521Z,99.99
2023-02-21T03:59:43.309Z,99.99
2023-02-21T04:00:43.143Z,99.99
2023-02-21T04:01:43.449Z,99.99
2023-02-21T04:02:43.183Z,99.99
2023-02-21T04:03:42.993Z,99.99
2023-02-21T04:04:43.243Z,99.99
2023-02-21T04:06:04.477Z,99.99
2023-02-21T04:06:42.398Z,99.99
2023-02-21T04:07:44.565Z,99.99
2023-02-21T04:08:42.889Z,99.99
2023-02-21T04:09:43.148Z,99.99
2023-02-21T04:10:52.073Z,99.99
2023-02-21T04:11:45.614Z,99.99
2023-02-21T04:12:42.923Z,99.99
2023-02-21T04:13:43.164Z,99.99
2023-02-21T04:14:42.921Z,99.99
2023-02-21T04:16:04.657Z,99.99
2023-02-21T04:16:42.993Z,99.99
2023-02-21T04:17:43.221Z,99.99
2023-02-21T04:18:42.981Z,99.99
2023-02-21T04:19:43.228Z,99.99
2023-02-21T04:20:42.980Z,99.99
2023-02-21T04:21:43.209Z,99.99
2023-02-21T04:22:45.737Z,99.99
2023-02-21T04:23:42.729Z,99.99
2023-02-21T04:24:43.044Z,99.99
2023-02-21T04:26:03.840Z,99.99
2023-02-21T04:26:43.044Z,99.99
2023-02-21T04:27:42.766Z,99.99
2023-02-21T04:28:43.044Z,99.99
2023-02-21T04:29:42.765Z,99.99
2023-02-21T04:30:43.026Z,99.99
2023-02-21T04:31:42.893Z,99.99
2023-02-21T04:32:44.515Z,99.99
2023-02-21T04:33:42.782Z,99.99
2023-02-21T04:34:43.026Z,99.99
2023-02-21T04:36:04.265Z,99.99
2023-02-21T04:36:43.095Z,99.99
2023-02-21T04:37:42.868Z,99.99
2023-02-21T04:38:42.591Z,99.99
2023-02-21T04:39:42.855Z,99.99
2023-02-21T04:40:42.576Z,99.99
2023-02-21T04:41:42.960Z,99.99
2023-02-21T04:42:42.586Z,99.99
2023-02-21T04:43:42.864Z,99.99
2023-02-21T04:44:46.646Z,99.99
2023-02-21T04:46:05.377Z,99.99
2023-02-21T04:46:42.636Z,99.99
2023-02-21T04:47:42.905Z,99.99
2023-02-21T04:48:42.635Z,99.99
2023-02-21T04:49:42.895Z,99.99
2023-02-21T04:50:42.648Z,99.99
2023-02-21T04:51:42.918Z,99.99
2023-02-21T04:52:42.645Z,99.99
2023-02-21T04:53:42.917Z,99.99
2023-02-21T04:54:42.669Z,99.99
2023-02-21T04:56:02.461Z,99.99
2023-02-21T04:56:42.728Z,99.99
2023-02-21T04:57:42.444Z,99.99
2023-02-21T04:58:45.617Z,99.99
2023-02-21T04:59:42.450Z,99.99
2023-02-21T05:00:42.836Z,99.99
2023-02-21T05:01:42.459Z,99.99
2023-02-21T05:02:42.718Z,99.99
2023-02-21T05:03:42.460Z,99.99
2023-02-21T05:04:42.712Z,99.99
2023-02-21T05:06:02.500Z,99.99
2023-02-21T05:06:42.727Z,99.99
2023-02-21T05:07:42.511Z,99.99
2023-02-21T05:08:42.736Z,99.99
2023-02-21T05:09:42.496Z,99.99
2023-02-21T05:10:45.667Z,99.99
2023-02-21T05:11:42.542Z,99.99
2023-02-21T05:12:43.752Z,99.99
2023-02-21T05:13:42.666Z,99.99
2023-02-21T05:14:43.771Z,99.99
2023-02-21T05:16:02.608Z,99.99
2023-02-21T05:16:42.854Z,99.99
2023-02-21T05:17:44.068Z,99.99
2023-02-21T05:18:43.816Z,99.99
2023-02-21T05:19:42.652Z,99.99
2023-02-21T05:20:42.450Z,99.99
2023-02-21T05:21:43.681Z,99.99
2023-02-21T05:22:42.867Z,99.99
2023-02-21T05:23:42.887Z,99.99
2023-02-21T05:24:43.557Z,99.99
2023-02-21T05:26:02.370Z,99.99
2023-02-21T05:26:43.575Z,99.99
2023-02-21T05:27:43.844Z,99.99
2023-02-21T05:28:43.616Z,99.99
2023-02-21T05:29:42.867Z,99.99
2023-02-21T05:30:43.757Z,99.99
2023-02-21T05:31:43.974Z,99.99
2023-02-21T05:32:43.722Z,99.99
2023-02-21T05:33:42.742Z,99.99
2023-02-21T05:34:43.805Z,99.99
2023-02-21T05:36:02.122Z,99.99
2023-02-21T05:36:43.793Z,99.99
2023-02-21T05:37:42.140Z,99.99
2023-02-21T05:38:43.833Z,99.99
2023-02-21T05:39:43.628Z,99.99
2023-02-21T05:40:43.415Z,99.99
2023-02-21T05:41:42.870Z,99.99
2023-02-21T05:42:43.428Z,99.99
2023-02-21T05:43:43.216Z,99.99
2023-02-21T05:44:43.513Z,99.99
2023-02-21T05:46:02.343Z,99.99
2023-02-21T05:46:42.870Z,99.99
2023-02-21T05:47:42.357Z,99.99
2023-02-21T05:48:43.597Z,99.99
2023-02-21T05:49:41.935Z,99.99
2023-02-21T05:50:42.186Z,99.99
2023-02-21T05:51:41.960Z,99.99
2023-02-21T05:52:42.182Z,99.99
2023-02-21T05:53:41.955Z,99.99
2023-02-21T05:54:48.447Z,99.99
2023-02-21T05:56:02.945Z,99.99
2023-02-21T05:56:42.040Z,99.99
2023-02-21T05:57:41.801Z,99.99
2023-02-21T05:58:42.092Z,99.99
2023-02-21T05:59:41.814Z,99.99
2023-02-21T06:00:42.094Z,99.99
2023-02-21T06:01:41.832Z,99.99
2023-02-21T06:02:42.104Z,99.99
2023-02-21T06:03:41.935Z,99.99
2023-02-21T06:04:42.085Z,99.99
2023-02-21T06:06:04.206Z,99.99
2023-02-21T06:06:42.144Z,99.99
2023-02-21T06:07:41.875Z,99.99
2023-02-21T06:08:41.641Z,99.99
2023-02-21T06:09:41.879Z,99.99
2023-02-21T06:10:41.640Z,99.99
2023-02-21T06:11:41.886Z,99.99
2023-02-21T06:12:41.635Z,99.99
2023-02-21T06:13:41.886Z,99.99
2023-02-21T06:14:41.644Z,99.99
2023-02-21T06:16:02.442Z,99.99
2023-02-21T06:16:41.725Z,99.99
2023-02-21T06:17:41.957Z,99.99
2023-02-21T06:18:41.729Z,99.99
2023-02-21T06:20:58.076Z,99.99
2023-02-21T06:21:57.803Z,99.99
2023-02-21T06:22:58.056Z,99.99
2023-02-21T06:23:57.788Z,99.99
2023-02-21T06:24:58.049Z,99.99
2023-02-21T06:25:57.787Z,99.99
2023-02-21T06:26:57.076Z,99.99
2023-02-21T06:27:57.793Z,99.99
2023-02-21T06:28:57.548Z,99.99
2023-02-21T06:30:17.848Z,99.99
2023-02-21T06:30:57.601Z,99.99
2023-02-21T06:31:57.799Z,99.99
2023-02-21T06:32:58.259Z,99.99
2023-02-21T06:33:57.930Z,99.99
2023-02-21T06:34:57.669Z,99.99
2023-02-21T06:35:57.915Z,99.99
2023-02-21T06:36:57.684Z,99.99
2023-02-21T06:37:57.924Z,99.99
2023-02-21T06:38:57.682Z,99.99
2023-02-21T06:40:17.931Z,99.99
2023-02-21T06:40:57.869Z,99.99
2023-02-21T06:41:57.676Z,99.99
2023-02-21T06:42:58.886Z,99.99
2023-02-21T06:43:57.680Z,99.99
2023-02-21T06:44:57.455Z,99.99
2023-02-21T06:45:58.450Z,99.99
2023-02-21T06:46:57.460Z,99.99
2023-02-21T06:47:57.843Z,99.99
2023-02-21T06:48:57.592Z,99.99
2023-02-21T06:50:17.757Z,99.99
2023-02-21T06:50:57.458Z,99.99
2023-02-21T06:51:57.729Z,99.99
2023-02-21T06:52:57.470Z,99.99
2023-02-21T06:53:57.732Z,99.99
2023-02-21T06:54:57.709Z,99.99
2023-02-21T06:55:57.991Z,99.99
2023-02-21T06:56:57.496Z,99.99
2023-02-21T06:57:57.747Z,99.99
2023-02-21T06:58:57.489Z,99.99
2023-02-21T07:00:17.773Z,99.99
2023-02-21T07:00:58.633Z,99.99
2023-02-21T07:01:57.302Z,99.99
2023-02-21T07:02:57.486Z,99.99
2023-02-21T07:03:57.242Z,99.99
2023-02-21T07:04:57.558Z,99.99
2023-02-21T07:05:57.245Z,99.99
2023-02-21T07:06:57.481Z,99.99
2023-02-21T07:07:57.255Z,99.99
2023-02-21T07:08:57.487Z,99.99
2023-02-21T07:10:17.265Z,99.99
2023-02-21T07:10:57.492Z,99.99
2023-02-21T07:11:58.244Z,99.99
2023-02-21T07:12:58.557Z,99.99
2023-02-21T07:13:58.457Z,99.99
2023-02-21T07:14:57.917Z,99.99
2023-02-21T07:15:58.718Z,99.99
2023-02-21T07:16:58.964Z,99.99
2023-02-21T07:17:58.830Z,99.99
2023-02-21T07:18:58.696Z,99.99
2023-02-21T07:20:17.552Z,99.99
2023-02-21T07:20:58.754Z,99.99
2023-02-21T07:21:58.613Z,99.99
2023-02-21T07:22:58.927Z,99.99
2023-02-21T07:23:58.724Z,99.99
2023-02-21T07:24:58.501Z,99.99
2023-02-21T07:25:57.920Z,99.99
2023-02-21T07:26:58.689Z,99.99
2023-02-21T07:27:58.477Z,99.99
2023-02-21T07:28:58.049Z,99.99
2023-02-21T07:30:17.215Z,99.99
2023-02-21T07:30:58.421Z,99.99
2023-02-21T07:31:58.783Z,99.99
2023-02-21T07:33:03.937Z,99.99
2023-02-21T07:33:58.798Z,99.99
2023-02-21T07:34:58.600Z,99.99
2023-02-21T07:35:58.356Z,99.99
2023-02-21T07:36:58.715Z,99.99
2023-02-21T07:37:58.503Z,99.99
2023-02-21T07:38:57.804Z,99.99
2023-02-21T07:40:17.117Z,99.99
2023-02-21T07:40:57.563Z,99.99
2023-02-21T07:41:58.703Z,99.99
2023-02-21T07:42:58.492Z,99.99
2023-02-21T07:43:57.169Z,99.99
2023-02-21T07:44:58.697Z,99.99
2023-02-21T07:45:56.998Z,99.99
2023-02-21T07:46:56.771Z,99.99
2023-02-21T07:47:57.014Z,99.99
2023-02-21T07:48:57.272Z,99.99
2023-02-21T07:50:17.747Z,99.99
2023-02-21T07:50:56.825Z,99.99
2023-02-21T07:51:57.069Z,99.99
2023-02-21T07:52:56.821Z,99.99
2023-02-21T07:53:57.074Z,99.99
2023-02-21T07:54:56.851Z,99.99
2023-02-21T07:55:57.090Z,99.99
2023-02-21T07:56:56.850Z,99.99
2023-02-21T07:57:57.110Z,99.99
2023-02-21T07:58:56.880Z,99.99
2023-02-21T08:00:17.488Z,99.99
2023-02-21T08:00:56.989Z,99.99
2023-02-21T08:01:56.763Z,99.99
2023-02-21T08:02:57.025Z,99.99
2023-02-21T08:03:56.778Z,99.99
2023-02-21T08:04:57.113Z,99.99
2023-02-21T08:05:56.817Z,99.99
2023-02-21T08:06:56.564Z,99.99
2023-02-21T08:07:56.803Z,99.99
2023-02-21T08:08:56.602Z,99.99
2023-02-21T08:10:17.645Z,99.99
2023-02-21T08:10:56.669Z,99.99
2023-02-21T08:11:56.897Z,99.99
2023-02-21T08:12:56.640Z,99.99
2023-02-21T08:13:56.894Z,99.99
2023-02-21T08:14:56.636Z,99.99
2023-02-21T08:15:56.919Z,99.99
2023-02-21T08:16:56.627Z,99.99
2023-02-21T08:17:56.858Z,99.99
2023-02-21T08:18:56.627Z,99.99
2023-02-21T08:20:18.436Z,99.99
2023-02-21T08:20:56.714Z,99.99
2023-02-21T08:21:56.470Z,99.99
2023-02-21T08:22:56.700Z,99.99
2023-02-21T08:23:56.471Z,99.99
2023-02-21T08:24:56.718Z,99.99
2023-02-21T08:25:56.483Z,99.99
2023-02-21T08:26:56.721Z,99.99
2023-02-21T08:27:56.490Z,99.99
2023-02-21T08:28:56.719Z,99.99
2023-02-21T08:30:16.858Z,99.99
2023-02-21T08:30:56.358Z,99.99
2023-02-21T08:31:56.638Z,99.99
2023-02-21T08:32:56.371Z,99.99
2023-02-21T08:33:56.641Z,99.99
2023-02-21T08:34:56.364Z,99.99
2023-02-21T08:35:56.640Z,99.99
2023-02-21T08:36:56.369Z,99.99
2023-02-21T08:37:56.650Z,99.99
2023-02-21T08:38:56.381Z,99.99
2023-02-21T08:40:18.124Z,99.99
2023-02-21T08:40:57.562Z,99.99
2023-02-21T08:41:56.702Z,99.99
2023-02-21T08:42:56.450Z,99.99
2023-02-21T08:43:56.211Z,99.99
2023-02-21T08:44:56.490Z,99.99
2023-02-21T08:45:56.227Z,99.99
2023-02-21T08:46:56.515Z,99.99
2023-02-21T08:47:56.215Z,99.99
2023-02-21T08:48:56.464Z,99.99
2023-02-21T08:50:17.707Z,99.99
2023-02-21T08:50:56.478Z,99.99
2023-02-21T08:51:56.253Z,99.99
2023-02-21T08:52:56.506Z,99.99
2023-02-21T08:53:56.259Z,99.99
2023-02-21T08:54:56.538Z,99.99
2023-02-21T08:55:56.262Z,99.99
2023-02-21T08:56:56.502Z,99.99
2023-02-21T08:57:56.265Z,99.99
2023-02-21T08:58:55.999Z,99.99
2023-02-21T09:00:17.019Z,99.99
2023-02-21T09:00:56.135Z,99.99
2023-02-21T09:01:56.406Z,99.99
2023-02-21T09:02:56.126Z,99.99
2023-02-21T09:03:56.393Z,99.99
2023-02-21T09:04:56.115Z,99.99
2023-02-21T09:05:56.387Z,99.99
2023-02-21T09:06:56.126Z,99.99
2023-02-21T09:07:56.388Z,99.99
2023-02-21T09:08:56.137Z,99.99
2023-02-21T09:10:16.524Z,99.99
2023-02-21T09:10:56.317Z,99.99
2023-02-21T09:11:56.000Z,99.99
2023-02-21T09:12:56.275Z,99.99
2023-02-21T09:13:56.011Z,99.99
2023-02-21T09:14:56.262Z,99.99
2023-02-21T09:15:56.047Z,99.99
2023-02-21T09:16:56.277Z,99.99
2023-02-21T09:17:56.046Z,99.99
2023-02-21T09:18:56.291Z,99.99
2023-02-21T09:20:16.763Z,99.99
2023-02-21T09:20:55.301Z,99.99
2023-02-21T09:21:56.056Z,99.99
2023-02-21T09:22:56.294Z,99.99
2023-02-21T09:23:56.058Z,99.99
2023-02-21T09:24:55.813Z,99.99
2023-02-21T09:25:56.051Z,99.99
2023-02-21T09:26:55.788Z,99.99
2023-02-21T09:27:56.057Z,99.99
2023-02-21T09:28:55.786Z,99.99
2023-02-21T09:30:17.607Z,99.99
2023-02-21T09:30:55.832Z,99.99
2023-02-21T09:31:56.140Z,99.99
2023-02-21T09:32:55.863Z,99.99
2023-02-21T09:33:56.099Z,99.99
2023-02-21T09:34:55.854Z,99.79
2023-02-21T09:35:56.123Z,99.79
2023-02-21T09:36:55.856Z,99.68
2023-02-21T09:37:55.625Z,99.52
2023-02-21T09:38:55.990Z,99.42
2023-02-21T09:40:16.520Z,99.52
2023-02-21T09:40:55.958Z,99.38
2023-02-21T09:41:55.715Z,99.21
2023-02-21T09:42:55.950Z,99.11
2023-02-21T09:43:55.723Z,99.17
2023-02-21T09:44:55.954Z,99.17
2023-02-21T09:45:55.732Z,99.17
2023-02-21T09:46:55.940Z,99.07
2023-02-21T09:47:55.709Z,98.76
2023-02-21T09:48:55.953Z,98.76
2023-02-21T09:50:17.186Z,98.86
2023-02-21T09:50:55.476Z,98.86
2023-02-21T09:51:55.730Z,98.66
2023-02-21T09:52:55.497Z,98.76
2023-02-21T09:53:55.731Z,98.55
2023-02-21T09:54:55.462Z,98.66
2023-02-21T09:55:55.768Z,98.66
2023-02-21T09:56:55.490Z,98.66
2023-02-21T09:57:55.755Z,98.76
2023-02-21T09:58:55.522Z,98.76
2023-02-21T10:00:17.312Z,98.45
2023-02-21T10:00:55.603Z,98.55
2023-02-21T10:01:55.842Z,98.35
2023-02-21T10:02:55.599Z,98.14
2023-02-21T10:03:55.844Z,98.14
2023-02-21T10:04:55.651Z,98.14
2023-02-21T10:05:55.375Z,98.25
2023-02-21T10:06:55.597Z,98.25
2023-02-21T10:07:55.372Z,98.04
2023-02-21T10:08:55.622Z,97.83
2023-02-21T10:10:16.040Z,97.94
2023-02-21T10:10:55.650Z,98.04
2023-02-21T10:11:55.396Z,98.04
2023-02-21T10:12:55.641Z,97.94
2023-02-21T10:13:55.453Z,97.94
2023-02-21T10:14:55.656Z,98.10
2023-02-21T10:15:55.424Z,98.10
2023-02-21T10:16:55.681Z,97.99
2023-02-21T10:17:55.427Z,97.48
2023-02-21T10:18:55.153Z,97.48
2023-02-21T10:20:15.426Z,97.58
2023-02-21T10:20:55.169Z,97.79
2023-02-21T10:21:55.397Z,97.89
2023-02-21T10:22:55.157Z,97.89
2023-02-21T10:23:55.427Z,97.79
2023-02-21T10:24:55.188Z,97.79
2023-02-21T10:25:55.431Z,97.79
2023-02-21T10:26:55.173Z,97.89
2023-02-21T10:27:55.409Z,97.69
2023-02-21T10:28:56.951Z,97.58
2023-02-21T10:30:15.439Z,97.48
2023-02-21T10:30:55.285Z,97.38
2023-02-21T10:31:55.469Z,97.28
2023-02-21T10:32:55.249Z,97.17
2023-02-21T10:33:55.406Z,96.97
2023-02-21T10:34:55.165Z,96.66
2023-02-21T10:35:55.419Z,96.56
2023-02-21T10:36:55.244Z,96.66
2023-02-21T10:37:55.417Z,96.66
2023-02-21T10:38:55.168Z,96.66
2023-02-21T10:40:15.425Z,96.45
2023-02-21T10:40:55.158Z,96.35
2023-02-21T10:41:55.396Z,96.15
2023-02-21T10:42:55.207Z,96.04
2023-02-21T10:43:54.975Z,96.15
2023-02-21T10:44:55.179Z,96.04
2023-02-21T10:45:55.486Z,95.94
2023-02-21T10:46:55.223Z,95.84
2023-02-21T10:47:54.963Z,95.94
2023-02-21T10:48:55.239Z,95.84
2023-02-21T10:50:14.970Z,95.74
2023-02-21T10:50:55.216Z,95.23
2023-02-21T10:51:54.949Z,95.23
2023-02-21T10:52:55.240Z,95.53
2023-02-21T10:53:54.940Z,95.84
2023-02-21T10:54:55.213Z,95.94
2023-02-21T10:55:54.970Z,96.04
2023-02-21T10:56:55.244Z,96.15
2023-02-21T10:57:54.993Z,96.15
2023-02-21T10:58:55.252Z,96.35
2023-02-21T11:00:15.028Z,96.15
2023-02-21T11:00:54.826Z,95.74
2023-02-21T11:01:55.018Z,95.43
2023-02-21T11:02:54.263Z,94.92
2023-02-21T11:03:55.023Z,95.02
2023-02-21T11:04:54.760Z,95.12
2023-02-21T11:05:54.187Z,95.02
2023-02-21T11:06:54.171Z,95.12
2023-02-21T11:07:54.945Z,95.02
2023-02-21T11:08:54.713Z,95.02
2023-02-21T11:10:15.017Z,95.23
2023-02-21T11:10:54.726Z,95.32
2023-02-21T11:11:54.985Z,95.64
2023-02-21T11:12:54.730Z,95.53
2023-02-21T11:13:54.999Z,95.43
2023-02-21T11:14:54.739Z,95.53
2023-02-21T11:15:55.010Z,95.43
2023-02-21T11:16:54.734Z,95.53
2023-02-21T11:17:55.002Z,95.23
2023-02-21T11:18:54.745Z,94.61
2023-02-21T11:20:15.029Z,94.71
2023-02-21T11:20:54.750Z,94.81
2023-02-21T11:21:55.008Z,95.12
2023-02-21T11:22:54.750Z,95.23
2023-02-21T11:23:54.507Z,95.23
2023-02-21T11:24:54.753Z,95.23
2023-02-21T11:25:55.057Z,94.81
2023-02-21T11:26:54.757Z,94.61
2023-02-21T11:27:54.613Z,94.71
2023-02-21T11:28:54.786Z,94.71
2023-02-21T11:30:14.584Z,94.92
2023-02-21T11:30:54.791Z,94.81
2023-02-21T11:31:54.612Z,94.40
2023-02-21T11:32:56.913Z,94.30
2023-02-21T11:33:54.560Z,94.26
2023-02-21T11:34:54.805Z,94.30
2023-02-21T11:35:54.604Z,94.46
2023-02-21T11:36:54.821Z,94.36
2023-02-21T11:37:54.599Z,94.26
2023-02-21T11:38:54.338Z,94.26
2023-02-21T11:40:14.614Z,93.85
2023-02-21T11:40:54.345Z,93.54
2023-02-21T11:41:54.589Z,93.64
2023-02-21T11:42:54.837Z,93.85
2023-02-21T11:43:54.634Z,93.85
2023-02-21T11:44:54.405Z,93.54
2023-02-21T11:45:54.775Z,93.54
2023-02-21T11:46:54.388Z,93.19
2023-02-21T11:47:54.648Z,92.68
2023-02-21T11:48:54.424Z,92.27
2023-02-21T11:50:14.727Z,92.27
2023-02-21T11:50:54.396Z,92.43
2023-02-21T11:51:54.659Z,92.53
2023-02-21T11:52:54.385Z,92.22
2023-02-21T11:53:54.671Z,92.02
2023-02-21T11:54:54.400Z,91.30
2023-02-21T11:55:54.682Z,90.52
2023-02-21T11:56:54.490Z,91.14
2023-02-21T11:57:54.185Z,91.55
2023-02-21T11:58:54.407Z,91.55
2023-02-21T12:00:15.154Z,92.27
2023-02-21T12:00:54.506Z,92.47
2023-02-21T12:01:54.270Z,92.47
2023-02-21T12:02:54.572Z,92.47
2023-02-21T12:03:54.257Z,92.47
2023-02-21T12:04:54.504Z,92.68
2023-02-21T12:05:54.313Z,92.88
2023-02-21T12:06:54.508Z,92.98
2023-02-21T12:07:54.256Z,93.04
2023-02-21T12:08:54.515Z,92.63
2023-02-21T12:10:15.766Z,91.61
2023-02-21T12:10:54.058Z,91.71
2023-02-21T12:11:54.306Z,91.40
2023-02-21T12:12:54.043Z,91.30
2023-02-21T12:13:54.312Z,91.91
2023-02-21T12:14:54.062Z,91.91
2023-02-21T12:15:54.396Z,91.91
2023-02-21T12:16:54.048Z,92.22
2023-02-21T12:17:54.311Z,92.18
2023-02-21T12:18:54.048Z,91.16
2023-02-21T12:20:14.327Z,91.05
2023-02-21T12:20:54.066Z,91.05
2023-02-21T12:21:54.296Z,91.05
2023-02-21T12:22:54.050Z,90.95
2023-02-21T12:23:54.299Z,90.64
2023-02-21T12:24:54.025Z,91.05
2023-02-21T12:25:54.269Z,91.09
2023-02-21T12:26:54.030Z,90.58
2023-02-21T12:27:54.277Z,90.79
2023-02-21T12:28:54.044Z,91.20
2023-02-21T12:30:14.301Z,91.71
2023-02-21T12:30:54.109Z,91.91
2023-02-21T12:31:53.865Z,91.91
2023-02-21T12:32:54.041Z,92.02
2023-02-21T12:33:53.777Z,91.82
2023-02-21T12:34:54.019Z,91.20
2023-02-21T12:35:54.301Z,91.40
2023-02-21T12:36:54.044Z,91.61
2023-02-21T12:37:53.788Z,91.71
2023-02-21T12:38:54.048Z,91.75
2023-02-21T12:40:13.804Z,92.06
2023-02-21T12:40:54.056Z,91.96
2023-02-21T12:41:53.812Z,91.55
2023-02-21T12:42:54.070Z,91.35
2023-02-21T12:43:53.828Z,91.44
2023-02-21T12:44:54.086Z,91.80
2023-02-21T12:45:53.823Z,92.21
2023-02-21T12:46:54.084Z,92.31
2023-02-21T12:47:53.825Z,92.51
2023-02-21T12:48:54.080Z,92.31
2023-02-21T12:50:14.550Z,92.72
2023-02-21T12:50:53.714Z,93.13
2023-02-21T12:51:53.948Z,93.23
2023-02-21T12:52:53.705Z,93.33
2023-02-21T12:53:53.950Z,93.33